createdAt,value
2022-09-21T00:00:08.991Z,0.90
2022-09-21T00:04:12.028Z,0.90
2022-09-21T00:08:16.808Z,1.20
2022-09-21T00:12:20.484Z,1.00
2022-09-21T00:16:24.328Z,1.10
2022-09-21T00:20:29.077Z,1.00
2022-09-21T00:24:35.199Z,1.15
2022-09-21T00:28:40.223Z,0.85
2022-09-21T00:32:43.479Z,1.00
2022-09-21T00:36:46.962Z,1.00
2022-09-21T00:40:51.708Z,0.98
2022-09-21T00:44:55.030Z,0.95
2022-09-21T00:48:59.579Z,1.00
2022-09-21T00:53:05.816Z,0.90
2022-09-21T00:57:11.174Z,1.08
2022-09-21T01:01:18.135Z,1.10
2022-09-21T01:05:21.572Z,0.90
2022-09-21T01:09:25.613Z,0.90
2022-09-21T01:13:41.745Z,1.00
2022-09-21T01:17:52.670Z,0.98
2022-09-21T01:22:06.199Z,0.90
2022-09-21T01:26:35.941Z,1.05
2022-09-21T01:30:48.233Z,1.00
2022-09-21T01:34:56.940Z,1.02
2022-09-21T01:39:04.038Z,0.95
2022-09-21T01:43:10.655Z,1.08
2022-09-21T01:47:17.796Z,1.00
2022-09-21T01:51:23.375Z,0.90
2022-09-21T01:55:30.652Z,1.25
2022-09-21T01:59:42.728Z,0.82
2022-09-21T02:03:52.431Z,1.00
2022-09-21T02:07:56.524Z,1.13
2022-09-21T02:12:00.221Z,1.00
2022-09-21T02:16:24.327Z,1.05
2022-09-21T02:20:33.314Z,1.00
2022-09-21T02:24:42.301Z,0.90
2022-09-21T02:28:53.053Z,1.00
2022-09-21T02:33:03.191Z,0.80
2022-09-21T02:37:12.684Z,1.10
2022-09-21T02:41:20.892Z,0.90
2022-09-21T02:45:27.835Z,1.08
2022-09-21T02:49:36.928Z,0.95
2022-09-21T02:53:43.169Z,1.02
2022-09-21T02:57:48.597Z,0.88
2022-09-21T03:01:53.146Z,1.05
2022-09-21T03:05:56.689Z,1.00
2022-09-21T03:10:01.195Z,1.05
2022-09-21T03:14:07.137Z,0.95
2022-09-21T03:18:11.400Z,1.20
2022-09-21T03:22:14.610Z,1.15
2022-09-21T03:26:22.361Z,0.95
2022-09-21T03:30:26.561Z,1.08
2022-09-21T03:34:32.802Z,0.90
2022-09-21T03:38:36.475Z,1.08
2022-09-21T03:42:41.556Z,0.85
2022-09-21T03:46:44.985Z,1.20
2022-09-21T03:50:47.946Z,1.10
2022-09-21T03:54:51.179Z,1.20
2022-09-21T03:58:55.546Z,1.10
2022-09-21T04:02:58.752Z,1.10
2022-09-21T04:07:01.980Z,1.42
2022-09-21T04:11:11.904Z,1.20
2022-09-21T04:15:19.463Z,1.10
2022-09-21T04:19:22.614Z,1.40
2022-09-21T04:23:25.568Z,1.20
2022-09-21T04:27:28.626Z,1.20
2022-09-21T04:31:33.290Z,1.20
2022-09-21T04:35:36.279Z,1.05
2022-09-21T04:39:39.550Z,1.13
2022-09-21T04:43:43.681Z,1.40
2022-09-21T04:47:48.018Z,1.38
2022-09-21T04:51:51.313Z,1.50
2022-09-21T04:55:55.445Z,1.60
2022-09-21T04:59:58.758Z,1.58
2022-09-21T05:04:03.496Z,1.27
2022-09-21T05:08:06.746Z,1.35
2022-09-21T05:12:10.150Z,1.40
2022-09-21T05:16:13.193Z,1.38
2022-09-21T05:20:17.862Z,1.55
2022-09-21T05:24:20.877Z,1.92
2022-09-21T05:28:24.708Z,1.42
2022-09-21T05:32:39.863Z,1.60
2022-09-21T05:36:52.400Z,1.58
2022-09-21T05:40:55.834Z,1.65
2022-09-21T05:44:59.472Z,1.40
2022-09-21T05:49:07.389Z,1.65
2022-09-21T05:53:41.095Z,1.60
2022-09-21T05:57:51.814Z,1.50
2022-09-21T06:02:05.750Z,1.80
2022-09-21T06:06:10.762Z,1.48
2022-09-21T06:10:16.221Z,1.65
2022-09-21T06:14:24.640Z,1.73
2022-09-21T06:18:27.808Z,1.50
2022-09-21T06:22:30.834Z,1.60
2022-09-21T06:26:35.564Z,1.65
2022-09-21T06:30:40.963Z,1.88
2022-09-21T06:34:44.820Z,1.55
2022-09-21T06:38:47.926Z,1.52
2022-09-21T06:42:57.177Z,1.42
2022-09-21T06:47:00.388Z,1.83
2022-09-21T06:51:05.786Z,1.52
2022-09-21T06:55:10.000Z,1.50
2022-09-21T06:59:14.771Z,1.40
2022-09-21T07:03:18.396Z,1.30
2022-09-21T07:07:21.752Z,1.60
2022-09-21T07:11:25.365Z,1.63
2022-09-21T07:15:31.250Z,1.85
2022-09-21T07:19:34.279Z,1.90
2022-09-21T07:23:37.925Z,1.60
2022-09-21T07:27:41.131Z,1.90
2022-09-21T07:31:46.298Z,2.00
2022-09-21T07:35:53.580Z,1.70
2022-09-21T07:39:56.626Z,2.03
2022-09-21T07:43:59.871Z,1.98
2022-09-21T07:48:09.100Z,1.88
2022-09-21T07:52:12.464Z,2.10
2022-09-21T07:56:17.590Z,2.00
2022-09-21T08:00:20.914Z,1.70
2022-09-21T08:04:25.274Z,2.08
2022-09-21T08:08:28.454Z,1.60
2022-09-21T08:12:31.492Z,1.70
2022-09-21T08:16:34.860Z,1.65
2022-09-21T08:20:40.089Z,1.60
2022-09-21T08:24:44.562Z,1.67
2022-09-21T08:28:50.080Z,1.58
2022-09-21T08:32:55.685Z,1.55
2022-09-21T08:37:00.331Z,1.80
2022-09-21T08:41:14.206Z,1.50
2022-09-21T08:45:20.758Z,2.97
2022-09-21T08:49:28.894Z,1.58
2022-09-21T08:53:35.983Z,1.70
2022-09-21T08:57:39.001Z,1.90
2022-09-21T09:01:55.972Z,1.90
2022-09-21T09:06:03.419Z,1.80
2022-09-21T09:10:29.339Z,1.60
2022-09-21T09:14:56.952Z,1.70
2022-09-21T09:19:08.525Z,1.50
2022-09-21T09:23:20.333Z,1.60
2022-09-21T09:27:29.450Z,1.55
2022-09-21T09:31:35.178Z,1.50
2022-09-21T09:35:45.101Z,1.40
2022-09-21T09:39:55.018Z,1.30
2022-09-21T09:44:15.419Z,1.63
2022-09-21T09:48:42.046Z,1.42
2022-09-21T09:52:46.422Z,1.40
2022-09-21T09:56:49.481Z,1.48
2022-09-21T10:00:55.426Z,1.40
2022-09-21T10:05:06.135Z,1.50
2022-09-21T10:09:26.856Z,1.70
2022-09-21T10:13:31.627Z,1.23
2022-09-21T10:17:36.254Z,1.50
2022-09-21T10:21:44.488Z,1.30
2022-09-21T10:25:55.630Z,1.33
2022-09-21T10:29:58.858Z,1.40
2022-09-21T10:34:15.407Z,1.20
2022-09-21T10:38:22.715Z,1.35
2022-09-21T10:42:26.164Z,1.40
2022-09-21T10:46:36.488Z,1.20
2022-09-21T10:50:43.450Z,0.88
2022-09-21T10:54:52.122Z,1.00
2022-09-21T10:59:23.636Z,0.80
2022-09-21T11:03:48.382Z,0.80
2022-09-21T11:07:58.341Z,0.80
2022-09-21T11:12:08.604Z,0.80
2022-09-21T11:16:16.708Z,0.68
2022-09-21T11:20:29.033Z,0.60
2022-09-21T11:24:44.044Z,0.60
2022-09-21T11:28:50.851Z,0.70
2022-09-21T11:33:11.939Z,0.80
2022-09-21T11:37:28.302Z,0.60
2022-09-21T11:42:04.831Z,0.63
2022-09-21T11:46:17.415Z,0.80
2022-09-21T11:50:35.345Z,0.60
2022-09-21T11:55:01.781Z,0.77
2022-09-21T11:59:23.920Z,0.60
2022-09-21T12:03:50.732Z,0.60
2022-09-21T12:08:14.822Z,0.70
2022-09-21T12:12:22.981Z,0.50
2022-09-21T12:16:35.476Z,0.55
2022-09-21T12:20:46.988Z,0.52
2022-09-21T12:24:54.089Z,0.60
2022-09-21T12:29:03.478Z,0.63
2022-09-21T12:33:16.622Z,0.60
2022-09-21T12:37:24.865Z,0.75
2022-09-21T12:41:34.366Z,0.88
2022-09-21T12:45:42.653Z,0.80
2022-09-21T12:49:50.317Z,0.80
2022-09-21T12:53:56.341Z,0.65
2022-09-21T12:58:15.904Z,0.90
2022-09-21T13:02:23.858Z,0.90
2022-09-21T13:06:59.861Z,0.80
2022-09-21T13:11:05.771Z,0.68
2022-09-21T13:15:16.427Z,0.80
2022-09-21T13:19:23.077Z,1.00
2022-09-21T13:23:34.312Z,0.88
2022-09-21T13:28:01.408Z,0.77
2022-09-21T13:32:21.556Z,0.90
2022-09-21T13:36:32.933Z,1.10
2022-09-21T13:40:37.885Z,0.90
2022-09-21T13:44:43.771Z,0.93
2022-09-21T13:48:54.315Z,0.70
2022-09-21T13:53:00.595Z,0.77
2022-09-21T13:57:22.285Z,0.95
2022-09-21T14:01:48.368Z,1.30
2022-09-21T14:05:54.286Z,1.00
2022-09-21T14:10:00.854Z,1.00
2022-09-21T14:14:13.858Z,1.20
2022-09-21T14:18:38.716Z,1.10
2022-09-21T14:22:44.294Z,1.20
2022-09-21T14:26:54.459Z,1.20
2022-09-21T14:31:02.980Z,1.10
2022-09-21T14:35:11.419Z,1.25
2022-09-21T14:39:20.565Z,1.23
2022-09-21T14:43:29.020Z,1.30
2022-09-21T14:47:51.774Z,1.10
2022-09-21T14:52:12.711Z,1.20
2022-09-21T14:56:39.742Z,1.23
2022-09-21T15:00:45.060Z,1.10
2022-09-21T15:05:02.106Z,1.10
2022-09-21T15:09:41.618Z,1.00
2022-09-21T15:14:01.063Z,1.10
2022-09-21T15:18:04.687Z,0.80
2022-09-21T15:22:19.439Z,0.90
2022-09-21T15:26:29.353Z,1.05
2022-09-21T15:30:33.791Z,0.90
2022-09-21T15:34:37.546Z,1.33
2022-09-21T15:38:49.389Z,0.80
2022-09-21T15:43:04.590Z,0.95
2022-09-21T15:47:12.584Z,1.17
2022-09-21T15:51:22.269Z,1.08
2022-09-21T15:55:26.904Z,0.98
2022-09-21T15:59:31.069Z,0.90
2022-09-21T16:03:34.091Z,1.10
2022-09-21T16:07:38.902Z,0.80
2022-09-21T16:11:43.476Z,0.98
2022-09-21T16:16:02.095Z,1.08
2022-09-21T16:20:24.096Z,1.10
2022-09-21T16:24:29.327Z,1.15
2022-09-21T16:28:39.685Z,1.10
2022-09-21T16:32:42.717Z,1.20
2022-09-21T16:36:46.569Z,1.25
2022-09-21T16:40:51.902Z,1.00
2022-09-21T16:44:56.612Z,0.88
2022-09-21T16:49:00.832Z,1.00
2022-09-21T16:53:04.728Z,1.00
2022-09-21T16:57:08.500Z,0.90
2022-09-21T17:01:14.146Z,0.82
2022-09-21T17:05:20.695Z,0.77
2022-09-21T17:09:29.516Z,1.08
2022-09-21T17:13:33.782Z,0.70
2022-09-21T17:17:38.290Z,0.90
2022-09-21T17:21:41.761Z,1.00
2022-09-21T17:25:46.509Z,1.20
2022-09-21T17:29:50.462Z,0.80
2022-09-21T17:33:55.371Z,1.17
2022-09-21T17:37:58.536Z,0.90
2022-09-21T17:42:05.747Z,0.90
2022-09-21T17:46:17.631Z,1.05
2022-09-21T17:50:26.947Z,1.10
2022-09-21T17:54:31.609Z,0.93
2022-09-21T17:58:48.321Z,1.00
2022-09-21T18:02:52.646Z,0.90
2022-09-21T18:06:57.479Z,0.98
2022-09-21T18:11:07.674Z,1.20
2022-09-21T18:15:23.367Z,0.98
2022-09-21T18:19:38.277Z,1.20
2022-09-21T18:23:53.858Z,1.20
2022-09-21T18:28:00.791Z,1.00
2022-09-21T18:32:20.350Z,1.23
2022-09-21T18:36:29.867Z,1.33
2022-09-21T18:40:41.591Z,1.20
2022-09-21T18:44:51.821Z,1.30
2022-09-21T18:49:02.422Z,1.20
2022-09-21T18:53:15.347Z,1.30
2022-09-21T18:57:20.591Z,1.42
2022-09-21T19:01:24.165Z,1.10
2022-09-21T19:05:28.425Z,1.13
2022-09-21T19:09:39.090Z,1.20
2022-09-21T19:13:52.840Z,1.10
2022-09-21T19:18:12.481Z,1.27
2022-09-21T19:22:20.332Z,1.30
2022-09-21T19:26:29.155Z,1.20
2022-09-21T19:30:35.126Z,1.20
2022-09-21T19:34:38.700Z,1.30
2022-09-21T19:38:42.620Z,1.48
2022-09-21T19:43:04.031Z,1.23
2022-09-21T19:47:16.661Z,1.48
2022-09-21T19:51:21.459Z,1.20
2022-09-21T19:55:43.450Z,1.35
2022-09-21T19:59:47.563Z,1.20
2022-09-21T20:03:53.719Z,1.33
2022-09-21T20:08:04.429Z,1.08
2022-09-21T20:12:18.611Z,1.50
2022-09-21T20:16:37.240Z,1.27
2022-09-21T20:20:42.190Z,1.20
2022-09-21T20:24:52.963Z,1.30
2022-09-21T20:28:56.594Z,1.40
2022-09-21T20:33:02.819Z,1.10
2022-09-21T20:37:12.575Z,1.30
2022-09-21T20:41:19.038Z,1.33
2022-09-21T20:45:22.604Z,1.40
2022-09-21T20:49:25.549Z,1.20
2022-09-21T20:53:30.192Z,1.30
2022-09-21T20:57:33.247Z,1.40
2022-09-21T21:01:36.426Z,1.30
2022-09-21T21:05:39.831Z,1.40
2022-09-21T21:09:44.405Z,1.13
2022-09-21T21:13:48.207Z,1.38
2022-09-21T21:17:51.410Z,1.10
2022-09-21T21:21:54.582Z,1.42
2022-09-21T21:26:05.670Z,1.48
2022-09-21T21:30:10.470Z,1.30
2022-09-21T21:34:13.661Z,1.20
2022-09-21T21:38:16.894Z,1.23
2022-09-21T21:42:22.171Z,1.27
2022-09-21T21:46:25.627Z,1.17
2022-09-21T21:50:28.617Z,1.30
2022-09-21T21:54:33.407Z,1.38
2022-09-21T21:58:38.537Z,1.30
2022-09-21T22:02:41.880Z,1.52
2022-09-21T22:06:46.067Z,1.48
2022-09-21T22:10:50.278Z,1.30
2022-09-21T22:14:54.956Z,1.48
2022-09-21T22:18:58.313Z,1.35
2022-09-21T22:23:01.403Z,1.20
2022-09-21T22:27:04.651Z,1.42
2022-09-21T22:31:12.303Z,1.20
2022-09-21T22:35:16.103Z,1.30
2022-09-21T22:39:19.303Z,1.13
2022-09-21T22:43:22.236Z,1.40
2022-09-21T22:47:26.590Z,1.40
2022-09-21T22:51:30.454Z,1.30
2022-09-21T22:55:33.632Z,1.50
2022-09-21T22:59:36.570Z,1.40
2022-09-21T23:03:43.007Z,1.20
2022-09-21T23:07:46.093Z,1.35
2022-09-21T23:11:53.320Z,1.35
2022-09-21T23:16:02.371Z,1.30
2022-09-21T23:20:07.692Z,1.50
2022-09-21T23:24:10.981Z,1.60
2022-09-21T23:28:14.177Z,1.40
2022-09-21T23:32:17.117Z,1.48
2022-09-21T23:36:23.490Z,1.20
2022-09-21T23:40:26.721Z,1.13
2022-09-21T23:44:30.088Z,1.23
2022-09-21T23:48:33.495Z,1.27
2022-09-21T23:52:38.158Z,1.58
2022-09-21T23:56:41.144Z,1.55
